Time;durP1;ratioP1;P1;durP2;ratioP2;P2;SDS_P1;SDS_P2;PMS_P1;PMS_P2;Temp;Humidity;BMP_temperature;BMP_pressure;BME280_temperature;BME280_humidity;BME280_pressure;Samples;Min_cycle;Max_cycle;Signal;HPM_P1;HPM_P2
2021/12/26 00:01:33;;;;;;;20.23;13.17;;;3.20;99.90;;;;;;5032554;28;20112;-72
2021/12/26 00:03:59;;;;;;;20.27;13.83;;;3.20;99.90;;;;;;5032761;28;20163;-72
2021/12/26 00:06:26;;;;;;;17.33;12.47;;;3.20;99.90;;;;;;5031284;28;20056;-71
2021/12/26 00:08:54;;;;;;;20.87;12.53;;;3.40;99.90;;;;;;5032553;28;20095;-71
2021/12/26 00:11:20;;;;;;;23.23;12.30;;;3.40;99.90;;;;;;5032510;28;20021;-71
2021/12/26 00:13:46;;;;;;;20.93;12.60;;;3.30;99.90;;;;;;5032688;28;20402;-71
2021/12/26 00:16:12;;;;;;;24.00;13.07;;;3.30;99.90;;;;;;5031106;28;20021;-71
2021/12/26 00:18:45;;;;;;;24.90;13.60;;;3.40;99.90;;;;;;5031190;28;20026;-72
2021/12/26 00:21:14;;;;;;;20.30;12.40;;;3.40;99.90;;;;;;5031345;28;20474;-70
2021/12/26 00:23:40;;;;;;;18.43;11.57;;;3.30;99.90;;;;;;5032365;28;20378;-71
2021/12/26 00:26:05;;;;;;;18.10;11.87;;;3.30;99.90;;;;;;5032445;28;20109;-71
2021/12/26 00:28:31;;;;;;;19.43;12.20;;;3.30;99.90;;;;;;5032319;28;20088;-72
2021/12/26 00:30:57;;;;;;;32.77;15.87;;;3.30;99.90;;;;;;5031055;28;20021;-72
2021/12/26 00:33:24;;;;;;;23.77;13.03;;;3.20;99.90;;;;;;5032593;28;20026;-72
2021/12/26 00:35:49;;;;;;;29.43;12.93;;;3.20;99.90;;;;;;5032247;28;20419;-71
2021/12/26 00:38:15;;;;;;;19.70;13.00;;;3.10;99.90;;;;;;5030928;28;20026;-71
2021/12/26 00:40:41;;;;;;;24.80;13.13;;;3.20;99.90;;;;;;5032280;28;20415;-72
2021/12/26 00:43:07;;;;;;;19.37;12.73;;;3.10;99.90;;;;;;5030838;28;20071;-71
2021/12/26 00:45:33;;;;;;;19.30;12.67;;;3.10;99.90;;;;;;5032532;28;20022;-71
2021/12/26 00:47:59;;;;;;;17.90;12.13;;;3.10;99.90;;;;;;5032425;28;20025;-71
2021/12/26 00:50:29;;;;;;;21.00;11.73;;;3.30;99.90;;;;;;5032098;28;20034;-71
2021/12/26 00:52:56;;;;;;;21.13;12.23;;;3.20;99.90;;;;;;5034681;28;20021;-72
2021/12/26 00:55:22;;;;;;;19.23;12.53;;;3.20;99.90;;;;;;5036026;28;20029;-71
2021/12/26 00:57:49;;;;;;;19.23;11.73;;;3.20;99.90;;;;;;5035853;28;20057;-73
2021/12/26 01:00:24;;;;;;;22.87;12.33;;;3.20;99.90;;;;;;5035985;28;20065;-72
2021/12/26 01:02:50;;;;;;;46.78;13.25;;;3.20;99.90;;;;;;5035626;28;20029;-72
2021/12/26 01:05:18;;;;;;;20.17;12.90;;;3.20;99.90;;;;;;5034224;28;20029;-71
2021/12/26 01:08:01;;;;;;;25.43;14.37;;;3.20;99.90;;;;;;5035309;28;20025;-71
2021/12/26 01:10:34;;;;;;;22.87;13.53;;;3.10;99.90;;;;;;5035498;28;20067;-71
2021/12/26 01:13:10;;;;;;;25.80;13.97;;;3.10;99.90;;;;;;5034022;28;20018;-72
2021/12/26 01:15:35;;;;;;;23.03;13.70;;;3.00;99.90;;;;;;5035558;28;20371;-72
2021/12/26 01:18:01;;;;;;;26.43;13.97;;;2.90;99.90;;;;;;5035278;28;20043;-71
2021/12/26 01:21:16;;;;;;;39.60;15.73;;;2.80;99.90;;;;;;5033867;28;20017;-72
2021/12/26 01:23:25;;;;;;;41.30;16.58;;;2.80;99.90;;;;;;5032014;28;20391;-72
2021/12/26 01:25:51;;;;;;;41.80;16.30;;;2.70;99.90;;;;;;5034338;28;20029;-72
2021/12/26 01:28:18;;;;;;;30.80;14.87;;;2.70;99.90;;;;;;5033794;28;20120;-72
2021/12/26 01:30:45;;;;;;;32.63;15.50;;;2.80;99.90;;;;;;5035168;28;20022;-72
2021/12/26 01:33:13;;;;;;;37.57;16.60;;;2.80;99.90;;;;;;5035063;28;20035;-72
2021/12/26 01:35:39;;;;;;;43.17;17.47;;;2.80;99.90;;;;;;5034870;28;20045;-72
2021/12/26 01:38:07;;;;;;;34.27;16.17;;;2.80;99.90;;;;;;5033790;28;20017;-72
2021/12/26 01:40:36;;;;;;;64.60;17.00;;;2.80;99.90;;;;;;5034915;28;20022;-72
2021/12/26 01:43:03;;;;;;;46.50;17.10;;;2.80;99.90;;;;;;5034954;28;20045;-71
2021/12/26 01:45:30;;;;;;;38.30;15.93;;;2.80;99.90;;;;;;5034862;28;20101;-71
2021/12/26 01:48:01;;;;;;;35.53;16.07;;;2.90;99.90;;;;;;5034883;28;20378;-71
2021/12/26 01:50:28;;;;;;;50.40;15.80;;;2.80;99.90;;;;;;5034771;28;20053;-71
2021/12/26 01:52:54;;;;;;;27.07;15.43;;;2.80;99.90;;;;;;5034835;28;20036;-71
2021/12/26 01:55:26;;;;;;;32.23;16.63;;;2.80;99.90;;;;;;5034733;28;20037;-72
2021/12/26 01:57:54;;;;;;;62.17;17.13;;;2.80;99.90;;;;;;5034823;28;20021;-71
2021/12/26 02:00:21;;;;;;;30.27;16.13;;;2.80;99.90;;;;;;5034810;28;20108;-72
2021/12/26 02:02:48;;;;;;;58.17;17.37;;;2.90;99.90;;;;;;5034068;28;20030;-72
2021/12/26 02:05:14;;;;;;;49.00;17.03;;;2.80;99.90;;;;;;5034497;28;20159;-72
2021/12/26 02:07:40;;;;;;;23.07;15.83;;;2.90;99.90;;;;;;5034566;28;20037;-72
2021/12/26 02:10:06;;;;;;;39.80;16.07;;;2.80;99.90;;;;;;5033041;28;20021;-72
2021/12/26 02:12:32;;;;;;;63.60;17.00;;;3.00;99.90;;;;;;5033010;28;20160;-72
2021/12/26 02:14:58;;;;;;;44.47;16.53;;;2.90;99.90;;;;;;5034405;28;20112;-73
2021/12/26 02:17:24;;;;;;;28.93;16.77;;;2.80;99.90;;;;;;5034480;28;20033;-71
2021/12/26 02:19:51;;;;;;;35.30;15.63;;;2.90;99.90;;;;;;5034233;28;20070;-71
2021/12/26 02:22:24;;;;;;;32.40;15.17;;;2.90;99.90;;;;;;5034311;28;20021;-71
2021/12/26 02:27:32;;;;;;;37.40;16.70;;;3.00;99.90;;;;;;5034442;28;20048;-71
2021/12/26 02:30:04;;;;;;;28.47;16.83;;;2.90;99.90;;;;;;5034110;28;20478;-71
2021/12/26 02:32:30;;;;;;;39.63;16.70;;;2.90;99.90;;;;;;5033996;28;20116;-71
2021/12/26 02:34:57;;;;;;;26.00;14.77;;;2.90;99.90;;;;;;5034018;28;20045;-70
2021/12/26 02:37:23;;;;;;;39.43;16.20;;;3.00;99.90;;;;;;5033910;28;20029;-71
2021/12/26 02:39:48;;;;;;;27.83;16.73;;;3.00;99.90;;;;;;5033989;28;20376;-71
2021/12/26 02:42:18;;;;;;;31.33;17.17;;;2.90;99.90;;;;;;5032447;28;20454;-72
2021/12/26 02:44:44;;;;;;;36.60;17.37;;;2.80;99.90;;;;;;5032381;28;20087;-72
2021/12/26 02:47:09;;;;;;;26.23;16.13;;;3.00;99.90;;;;;;5032723;28;20025;-72
2021/12/26 02:49:35;;;;;;;21.87;15.33;;;2.90;99.90;;;;;;5033667;28;20053;-72
2021/12/26 02:52:01;;;;;;;29.53;16.90;;;3.00;99.90;;;;;;5033629;28;20052;-72
2021/12/26 02:54:26;;;;;;;22.83;15.87;;;3.00;99.90;;;;;;5033581;28;20108;-71
2021/12/26 02:56:53;;;;;;;28.80;15.87;;;3.20;99.90;;;;;;5033727;28;20022;-72
2021/12/26 02:59:18;;;;;;;24.40;15.57;;;3.10;99.90;;;;;;5032788;28;20030;-71
2021/12/26 03:01:44;;;;;;;23.23;15.83;;;3.20;99.90;;;;;;5032258;28;20032;-71
2021/12/26 03:04:10;;;;;;;39.23;18.07;;;3.20;99.90;;;;;;5032095;28;20109;-71
2021/12/26 03:06:57;;;;;;;30.30;17.50;;;3.10;99.90;;;;;;5032029;28;20025;-72
2021/12/26 03:09:23;;;;;;;29.13;18.33;;;3.00;99.90;;;;;;5033581;28;20022;-71
2021/12/26 03:11:49;;;;;;;28.73;18.70;;;2.80;99.90;;;;;;5033274;28;20083;-71
2021/12/26 03:14:15;;;;;;;26.27;17.30;;;2.80;99.90;;;;;;5033013;28;20087;-71
2021/12/26 03:16:51;;;;;;;26.37;16.57;;;3.00;99.90;;;;;;5033240;28;20057;-71
2021/12/26 03:19:17;;;;;;;22.80;15.83;;;3.10;99.90;;;;;;5033286;28;20028;-71
2021/12/26 03:21:43;;;;;;;27.13;16.80;;;3.10;99.90;;;;;;5031777;28;20383;-72
2021/12/26 03:24:09;;;;;;;29.70;17.90;;;3.10;99.90;;;;;;5031705;28;20398;-71
2021/12/26 03:26:34;;;;;;;24.83;18.10;;;3.10;99.90;;;;;;5033541;28;20018;-72
2021/12/26 03:29:00;;;;;;;26.13;17.67;;;3.10;99.90;;;;;;5033307;28;20100;-72
2021/12/26 03:31:25;;;;;;;30.80;17.07;;;3.20;99.90;;;;;;5033166;28;20021;-72
2021/12/26 03:33:51;;;;;;;24.63;16.97;;;3.20;99.90;;;;;;5033075;28;20459;-71
2021/12/26 03:36:17;;;;;;;30.63;17.03;;;3.30;99.90;;;;;;5033237;28;20029;-71
2021/12/26 03:38:42;;;;;;;28.83;18.30;;;3.20;99.90;;;;;;5032935;28;20044;-71
2021/12/26 03:41:08;;;;;;;27.37;17.03;;;3.10;99.90;;;;;;5031926;28;20026;-73
2021/12/26 03:43:34;;;;;;;23.60;16.80;;;3.10;99.90;;;;;;5032958;28;20049;-71
2021/12/26 03:46:00;;;;;;;27.13;17.83;;;3.00;99.90;;;;;;5033041;28;20208;-72
2021/12/26 03:48:27;;;;;;;23.33;16.83;;;3.00;99.90;;;;;;5033128;28;20072;-73
2021/12/26 03:50:54;;;;;;;25.23;15.83;;;3.00;99.90;;;;;;5033259;28;20060;-72
2021/12/26 03:53:20;;;;;;;26.33;16.13;;;3.00;99.90;;;;;;5032968;28;20415;-72
2021/12/26 03:55:46;;;;;;;24.73;16.43;;;3.00;99.90;;;;;;5033166;28;20029;-72
2021/12/26 03:58:12;;;;;;;26.63;17.67;;;2.90;99.90;;;;;;5033073;28;20037;-72
2021/12/26 04:00:39;;;;;;;38.83;17.47;;;2.90;99.90;;;;;;5033290;28;20041;-71
2021/12/26 04:03:05;;;;;;;30.33;17.53;;;2.90;99.90;;;;;;5033281;28;20036;-72
2021/12/26 04:05:34;;;;;;;43.23;21.23;;;2.90;99.90;;;;;;5032853;28;20482;-71
2021/12/26 04:08:00;;;;;;;31.57;20.33;;;2.90;99.90;;;;;;5033136;28;20013;-72
2021/12/26 04:10:25;;;;;;;27.60;16.47;;;2.90;99.90;;;;;;5032789;28;20375;-72
2021/12/26 04:12:53;;;;;;;27.97;17.17;;;3.00;99.90;;;;;;5033073;28;20450;-72
2021/12/26 04:15:21;;;;;;;30.93;16.70;;;2.90;99.90;;;;;;5032824;28;20022;-72
2021/12/26 04:17:51;;;;;;;33.87;17.87;;;2.80;99.90;;;;;;5031402;28;20029;-72
2021/12/26 04:20:17;;;;;;;36.87;17.70;;;2.80;99.90;;;;;;5032972;28;20028;-72
2021/12/26 04:22:42;;;;;;;31.50;17.73;;;2.80;99.90;;;;;;5032914;28;20037;-72
2021/12/26 04:25:09;;;;;;;26.87;16.70;;;2.70;99.90;;;;;;5032596;28;20508;-72
2021/12/26 04:27:35;;;;;;;31.90;17.10;;;2.70;99.90;;;;;;5036199;28;20021;-71
2021/12/26 04:30:03;;;;;;;25.87;16.10;;;2.70;99.90;;;;;;5036675;28;20026;-71
2021/12/26 04:32:28;;;;;;;26.70;17.13;;;2.70;99.90;;;;;;5036457;28;20493;-71
2021/12/26 04:34:54;;;;;;;27.30;16.33;;;2.70;99.90;;;;;;5036343;28;20056;-71
2021/12/26 04:37:20;;;;;;;30.23;16.60;;;2.60;99.90;;;;;;5036301;28;20032;-71
2021/12/26 04:39:45;;;;;;;23.43;14.73;;;2.60;99.90;;;;;;5036724;28;20029;-72
2021/12/26 04:42:11;;;;;;;22.10;15.37;;;2.60;99.90;;;;;;5034894;28;20026;-72
2021/12/26 04:44:37;;;;;;;31.80;15.37;;;2.60;99.90;;;;;;5035293;28;20025;-71
2021/12/26 04:47:03;;;;;;;25.00;15.80;;;2.60;99.90;;;;;;5034734;28;20053;-71
2021/12/26 04:49:29;;;;;;;48.00;15.57;;;2.60;99.90;;;;;;5036420;28;20017;-71
2021/12/26 04:51:54;;;;;;;25.40;15.13;;;2.70;99.90;;;;;;5034768;28;20089;-71
2021/12/26 04:54:20;;;;;;;21.67;14.73;;;2.60;99.90;;;;;;5035008;28;20053;-72
2021/12/26 04:56:46;;;;;;;23.10;14.63;;;2.60;99.90;;;;;;5036157;28;20036;-72
2021/12/26 04:59:11;;;;;;;22.83;14.07;;;2.70;99.90;;;;;;5035999;28;20048;-72
2021/12/26 05:01:37;;;;;;;28.07;14.50;;;2.70;99.90;;;;;;5036248;28;20029;-73
2021/12/26 05:04:04;;;;;;;24.63;14.73;;;2.70;99.90;;;;;;5034464;28;20410;-70
2021/12/26 05:06:29;;;;;;;42.03;15.67;;;2.70;99.90;;;;;;5035729;28;20100;-71
2021/12/26 05:08:55;;;;;;;29.60;14.37;;;2.60;99.90;;;;;;5035576;28;20483;-72
2021/12/26 05:11:21;;;;;;;26.87;15.77;;;2.70;99.90;;;;;;5035709;28;20462;-71
2021/12/26 05:13:46;;;;;;;27.80;15.63;;;2.50;99.90;;;;;;5035875;28;20103;-72
2021/12/26 05:16:12;;;;;;;27.03;14.50;;;2.50;99.90;;;;;;5035694;28;20025;-71
2021/12/26 05:18:38;;;;;;;22.20;15.27;;;2.60;99.90;;;;;;5035424;28;20023;-72
2021/12/26 05:21:04;;;;;;;25.90;16.03;;;2.60;99.90;;;;;;5034151;28;20470;-71
2021/12/26 05:23:30;;;;;;;19.77;14.27;;;2.50;99.90;;;;;;5035404;28;20033;-71
2021/12/26 05:25:55;;;;;;;22.97;15.23;;;2.60;99.90;;;;;;5035320;28;20057;-72
2021/12/26 05:28:21;;;;;;;27.40;14.73;;;2.60;99.90;;;;;;5035511;28;20022;-71
2021/12/26 05:30:46;;;;;;;24.03;14.57;;;2.60;99.90;;;;;;5035174;28;20416;-71
2021/12/26 05:33:12;;;;;;;24.23;14.77;;;2.50;99.90;;;;;;5035296;28;20025;-71
2021/12/26 05:35:38;;;;;;;24.10;15.33;;;2.60;99.90;;;;;;5034930;28;20099;-72
2021/12/26 05:38:04;;;;;;;21.37;15.57;;;2.50;99.90;;;;;;5033780;28;20025;-71
2021/12/26 05:40:30;;;;;;;21.63;15.20;;;2.50;99.90;;;;;;5035203;28;20029;-72
2021/12/26 05:42:55;;;;;;;24.97;15.90;;;2.40;99.90;;;;;;5035385;28;20459;-71
2021/12/26 05:45:21;;;;;;;27.10;18.07;;;2.40;99.90;;;;;;5033637;28;20071;-71
2021/12/26 05:47:47;;;;;;;27.37;17.53;;;2.40;99.90;;;;;;5034978;28;20021;-71
2021/12/26 05:50:16;;;;;;;22.93;16.93;;;2.40;99.90;;;;;;5035086;28;20025;-71
2021/12/26 05:52:44;;;;;;;26.83;16.67;;;2.40;99.90;;;;;;5034845;28;20054;-71
2021/12/26 05:55:10;;;;;;;29.50;16.20;;;2.50;99.90;;;;;;5033554;28;20446;-72
2021/12/26 05:57:36;;;;;;;24.23;16.93;;;2.30;99.90;;;;;;5034743;28;20025;-72
2021/12/26 06:00:06;;;;;;;27.43;18.23;;;2.30;99.90;;;;;;5033584;28;20029;-72
2021/12/26 06:02:31;;;;;;;25.27;16.97;;;2.30;99.90;;;;;;5034986;28;20163;-72
2021/12/26 06:04:57;;;;;;;28.23;16.77;;;2.40;99.90;;;;;;5034919;28;20108;-72
2021/12/26 06:07:22;;;;;;;27.60;17.57;;;2.30;99.90;;;;;;5034923;28;20083;-72
2021/12/26 06:09:48;;;;;;;24.73;16.53;;;2.30;99.90;;;;;;5034780;28;20167;-73
2021/12/26 06:12:14;;;;;;;27.93;17.60;;;2.30;99.90;;;;;;5035228;28;20029;-72
2021/12/26 06:14:39;;;;;;;27.20;17.10;;;2.20;99.90;;;;;;5034834;28;20521;-72
2021/12/26 06:17:05;;;;;;;28.13;19.03;;;2.20;99.90;;;;;;5033423;28;20458;-71
2021/12/26 06:19:31;;;;;;;25.40;15.60;;;2.20;99.90;;;;;;5033485;28;20057;-72
2021/12/26 06:21:56;;;;;;;28.40;17.33;;;2.20;99.90;;;;;;5034706;28;20124;-72
2021/12/26 06:24:22;;;;;;;27.47;15.60;;;2.10;99.90;;;;;;5034758;28;20138;-72
2021/12/26 06:26:47;;;;;;;27.57;17.13;;;2.20;99.90;;;;;;5034723;28;20094;-72
2021/12/26 06:29:13;;;;;;;29.47;17.27;;;2.10;99.90;;;;;;5034475;28;20532;-70
2021/12/26 06:31:39;;;;;;;27.13;17.37;;;2.10;99.90;;;;;;5034291;28;20025;-72
2021/12/26 06:34:05;;;;;;;25.33;16.53;;;2.00;99.90;;;;;;5034523;28;20049;-72
2021/12/26 06:36:30;;;;;;;27.87;17.40;;;2.10;99.90;;;;;;5034609;28;20402;-72
2021/12/26 06:38:56;;;;;;;25.20;16.10;;;2.00;99.90;;;;;;5033098;28;20095;-71
2021/12/26 06:41:22;;;;;;;29.37;17.50;;;2.20;99.90;;;;;;5034353;28;20030;-72
2021/12/26 06:43:48;;;;;;;24.40;15.33;;;2.30;99.90;;;;;;5033114;28;20052;-71
2021/12/26 06:46:15;;;;;;;24.37;15.40;;;2.30;99.90;;;;;;5034283;28;20041;-72
2021/12/26 06:48:41;;;;;;;25.90;16.13;;;2.40;99.90;;;;;;5033489;28;20104;-73
2021/12/26 06:51:07;;;;;;;27.47;16.97;;;2.40;99.90;;;;;;5032844;28;20037;-71
2021/12/26 06:53:33;;;;;;;24.23;15.97;;;2.40;99.90;;;;;;5034345;28;20029;-72
2021/12/26 06:55:59;;;;;;;28.73;18.83;;;2.30;99.90;;;;;;5036997;28;20022;-72
2021/12/26 06:58:25;;;;;;;30.87;18.13;;;2.20;99.90;;;;;;5040177;28;20026;-71
2021/12/26 07:00:51;;;;;;;29.07;19.20;;;2.20;99.90;;;;;;5038664;28;20025;-72
2021/12/26 07:03:17;;;;;;;29.60;18.03;;;2.20;99.90;;;;;;5036096;28;20068;-72
2021/12/26 07:05:42;;;;;;;27.77;17.57;;;2.20;99.90;;;;;;5036879;28;20112;-72
2021/12/26 07:08:08;;;;;;;34.53;18.60;;;2.20;99.90;;;;;;5037363;28;20028;-71
2021/12/26 07:10:34;;;;;;;29.67;19.83;;;2.20;99.90;;;;;;5036412;28;20554;-72
2021/12/26 07:12:59;;;;;;;33.10;19.83;;;2.20;99.90;;;;;;5035027;28;20025;-72
2021/12/26 07:15:25;;;;;;;33.00;20.10;;;2.20;99.90;;;;;;5034754;28;20068;-72
2021/12/26 07:17:51;;;;;;;34.70;20.90;;;2.10;99.90;;;;;;5034592;28;20063;-73
2021/12/26 07:20:17;;;;;;;34.33;21.37;;;2.10;99.90;;;;;;5034892;28;20032;-74
2021/12/26 07:22:46;;;;;;;34.70;20.57;;;2.10;99.90;;;;;;5034082;28;20104;-73
2021/12/26 07:25:13;;;;;;;34.67;23.30;;;2.10;99.90;;;;;;5033736;28;20021;-73
2021/12/26 07:27:39;;;;;;;29.50;19.07;;;2.00;99.90;;;;;;5032757;28;20013;-73
2021/12/26 07:30:06;;;;;;;34.70;21.97;;;2.20;99.90;;;;;;5033711;28;20100;-71
2021/12/26 07:32:31;;;;;;;32.33;20.43;;;2.30;99.90;;;;;;5033663;28;20052;-71
2021/12/26 07:34:58;;;;;;;43.90;30.40;;;2.40;99.90;;;;;;5033468;28;20442;-72
2021/12/26 07:37:24;;;;;;;32.67;20.57;;;2.40;99.90;;;;;;5033305;28;20017;-72
2021/12/26 07:39:50;;;;;;;33.03;19.77;;;2.40;99.90;;;;;;5033002;28;20501;-73
2021/12/26 07:42:16;;;;;;;34.53;21.80;;;2.40;99.90;;;;;;5033067;28;20029;-77
2021/12/26 07:44:41;;;;;;;31.20;19.50;;;2.40;99.90;;;;;;5033052;28;20400;-72
2021/12/26 07:47:07;;;;;;;42.23;26.60;;;2.40;99.90;;;;;;5032130;28;20466;-73
2021/12/26 07:49:33;;;;;;;38.10;24.03;;;2.40;99.90;;;;;;5032737;28;20033;-81
2021/12/26 07:51:59;;;;;;;37.33;21.70;;;2.40;99.90;;;;;;5041704;28;20449;-74
2021/12/26 07:54:25;;;;;;;35.33;20.30;;;2.40;99.90;;;;;;5053003;28;20021;-74
2021/12/26 07:56:53;;;;;;;34.90;21.00;;;2.30;99.90;;;;;;5052095;28;20021;-74
2021/12/26 07:59:18;;;;;;;29.07;17.90;;;2.40;99.90;;;;;;5042019;28;20030;-74
2021/12/26 08:01:45;;;;;;;31.60;19.07;;;2.50;99.90;;;;;;5052028;28;20047;-74
2021/12/26 08:04:15;;;;;;;26.67;17.90;;;2.50;99.90;;;;;;5056770;28;20033;-75
2021/12/26 08:06:41;;;;;;;27.37;17.90;;;2.60;99.90;;;;;;5057336;28;20032;-75
2021/12/26 08:09:07;;;;;;;26.17;16.67;;;2.80;99.90;;;;;;5055545;28;20424;-75
2021/12/26 08:11:33;;;;;;;25.70;17.37;;;2.80;99.90;;;;;;5056811;28;20396;-74
2021/12/26 08:13:59;;;;;;;25.53;17.87;;;2.80;99.90;;;;;;5051161;28;20022;-70
2021/12/26 08:16:28;;;;;;;29.83;17.77;;;2.90;99.90;;;;;;5046942;28;20034;-72
2021/12/26 08:18:55;;;;;;;26.97;18.57;;;3.00;99.90;;;;;;5044467;28;20033;-73
2021/12/26 08:21:20;;;;;;;28.50;19.47;;;2.90;99.90;;;;;;5042429;28;20500;-73
2021/12/26 08:23:46;;;;;;;27.57;16.50;;;2.90;99.90;;;;;;5051858;28;20060;-72
2021/12/26 08:26:12;;;;;;;27.40;18.07;;;2.80;99.90;;;;;;5046802;28;20028;-71
2021/12/26 08:28:38;;;;;;;26.63;17.97;;;2.80;99.90;;;;;;5043464;28;20021;-72
2021/12/26 08:31:04;;;;;;;28.07;18.80;;;2.80;99.90;;;;;;5045089;28;20021;-72
2021/12/26 08:33:30;;;;;;;26.10;17.73;;;2.90;99.90;;;;;;5043222;28;20100;-72
2021/12/26 08:35:55;;;;;;;30.17;18.97;;;2.90;99.90;;;;;;5040725;28;20169;-72
2021/12/26 08:38:21;;;;;;;30.97;19.57;;;2.80;99.90;;;;;;5041205;28;20434;-71
2021/12/26 08:40:52;;;;;;;27.10;17.33;;;2.90;99.90;;;;;;5045643;28;20013;-73
2021/12/26 08:43:18;;;;;;;27.73;17.90;;;2.90;99.90;;;;;;5040722;28;20473;-72
2021/12/26 08:45:44;;;;;;;29.33;18.17;;;2.90;99.90;;;;;;5043778;28;20148;-71
2021/12/26 08:48:10;;;;;;;27.57;18.80;;;2.80;99.90;;;;;;5042737;28;20521;-73
2021/12/26 08:50:35;;;;;;;27.50;18.73;;;3.00;99.90;;;;;;5043174;28;20090;-73
2021/12/26 08:53:02;;;;;;;30.53;18.63;;;3.00;99.90;;;;;;5040352;28;20380;-71
2021/12/26 08:55:27;;;;;;;28.60;19.60;;;3.00;99.90;;;;;;5042546;28;20029;-72
2021/12/26 08:57:54;;;;;;;30.47;18.70;;;3.10;99.90;;;;;;5047040;28;20036;-72
2021/12/26 09:00:21;;;;;;;34.30;18.83;;;3.10;99.90;;;;;;5044263;28;20025;-72
2021/12/26 09:02:48;;;;;;;32.53;19.40;;;3.20;99.90;;;;;;5047545;28;20025;-72
2021/12/26 09:05:15;;;;;;;27.83;19.23;;;3.20;99.90;;;;;;5049886;28;20021;-73
2021/12/26 09:07:41;;;;;;;30.00;20.63;;;3.20;99.90;;;;;;5055542;28;20035;-73
2021/12/26 09:10:08;;;;;;;27.23;17.80;;;3.20;99.90;;;;;;5054380;28;20450;-73
2021/12/26 09:12:34;;;;;;;29.77;18.13;;;3.10;99.90;;;;;;5041573;28;20441;-73
2021/12/26 09:15:00;;;;;;;30.97;18.40;;;3.10;99.90;;;;;;5053739;28;20374;-73
2021/12/26 09:17:26;;;;;;;28.67;19.57;;;3.10;99.90;;;;;;5039734;28;20032;-74
2021/12/26 09:19:56;;;;;;;30.37;21.67;;;3.20;99.90;;;;;;5041668;28;20055;-73
2021/12/26 09:22:22;;;;;;;28.40;17.70;;;3.30;99.90;;;;;;5040457;28;20091;-73
2021/12/26 09:24:48;;;;;;;28.70;18.97;;;3.20;99.90;;;;;;5042869;28;20116;-72
2021/12/26 09:27:15;;;;;;;30.47;18.83;;;3.20;99.90;;;;;;5038257;28;20414;-72
2021/12/26 09:29:40;;;;;;;29.57;19.50;;;3.10;99.90;;;;;;5035298;28;20034;-73
2021/12/26 09:32:07;;;;;;;31.40;19.23;;;3.20;99.90;;;;;;5034129;28;20465;-74
2021/12/26 09:34:34;;;;;;;28.53;19.13;;;3.10;99.90;;;;;;5034562;28;20088;-73
2021/12/26 09:37:02;;;;;;;25.37;17.27;;;3.10;99.90;;;;;;5035188;28;20075;-73
2021/12/26 09:39:27;;;;;;;25.33;16.87;;;3.20;99.90;;;;;;5034274;28;20025;-73
2021/12/26 09:41:53;;;;;;;33.43;21.60;;;3.30;99.90;;;;;;5035150;28;20507;-73
2021/12/26 09:44:20;;;;;;;27.83;16.60;;;3.30;99.90;;;;;;5051356;28;20041;-72
2021/12/26 09:46:46;;;;;;;23.53;16.00;;;3.30;99.90;;;;;;5055180;28;20017;-72
2021/12/26 09:49:12;;;;;;;21.37;14.00;;;3.30;99.90;;;;;;5055346;28;20025;-74
2021/12/26 09:51:37;;;;;;;18.10;13.43;;;3.40;99.90;;;;;;5047719;28;20075;-73
2021/12/26 09:54:05;;;;;;;17.27;12.07;;;3.50;99.90;;;;;;5039220;28;20033;-71
2021/12/26 09:56:31;;;;;;;18.43;13.00;;;3.50;99.90;;;;;;5042480;28;20084;-71
2021/12/26 09:59:07;;;;;;;17.20;12.37;;;3.60;99.90;;;;;;5036222;28;20029;-71
2021/12/26 10:01:33;;;;;;;17.07;12.17;;;3.60;99.90;;;;;;5042982;28;20462;-72
2021/12/26 10:04:01;;;;;;;18.73;12.37;;;3.60;99.90;;;;;;5050436;28;20025;-71
2021/12/26 10:06:32;;;;;;;16.93;11.33;;;3.70;99.90;;;;;;5041325;28;20125;-70
2021/12/26 10:09:10;;;;;;;15.77;12.03;;;3.70;99.90;;;;;;5034298;28;20036;-71
2021/12/26 10:11:42;;;;;;;16.47;10.97;;;3.80;99.90;;;;;;5042094;28;20029;-70
2021/12/26 10:14:11;;;;;;;19.87;13.30;;;3.90;99.90;;;;;;5033737;28;20025;-71
2021/12/26 10:16:40;;;;;;;17.73;12.97;;;3.90;99.90;;;;;;5043153;28;20030;-71
2021/12/26 10:19:06;;;;;;;16.13;11.63;;;4.00;99.90;;;;;;5039811;28;20458;-71
2021/12/26 10:21:58;;;;;;;17.60;12.03;;;4.00;99.90;;;;;;5045063;28;20386;-71
2021/12/26 10:24:29;;;;;;;17.30;11.50;;;4.00;99.90;;;;;;5038608;28;20027;-73
2021/12/26 10:26:56;;;;;;;14.47;10.90;;;4.10;99.90;;;;;;5033733;28;20034;-74
2021/12/26 10:29:34;;;;;;;23.53;15.17;;;4.20;99.90;;;;;;5031943;28;20478;-76
2021/12/26 10:32:32;;;;;;;19.33;13.70;;;4.30;99.90;;;;;;5046715;28;20028;-74
2021/12/26 10:35:08;;;;;;;15.77;12.30;;;4.30;99.90;;;;;;5030278;28;20064;-74
2021/12/26 10:37:37;;;;;;;14.70;11.53;;;4.30;99.90;;;;;;5036184;28;20030;-73
2021/12/26 10:40:02;;;;;;;15.33;10.83;;;4.40;99.90;;;;;;5037697;28;20108;-73
2021/12/26 10:42:31;;;;;;;17.20;12.50;;;4.40;99.90;;;;;;5036227;28;20108;-73
2021/12/26 10:45:03;;;;;;;13.73;10.50;;;4.40;99.90;;;;;;5033283;28;20034;-74
2021/12/26 10:47:37;;;;;;;13.27;10.47;;;4.50;99.90;;;;;;5030607;28;20521;-73
2021/12/26 10:50:06;;;;;;;15.68;10.57;;;4.60;99.90;;;;;;5032661;28;20040;-73
2021/12/26 10:52:41;;;;;;;14.97;10.90;;;4.60;99.90;;;;;;5032123;28;20094;-73
2021/12/26 10:55:13;;;;;;;15.40;10.93;;;4.60;99.90;;;;;;5031761;28;20033;-73
2021/12/26 10:57:46;;;;;;;13.83;10.30;;;4.70;99.90;;;;;;5035564;28;20225;-73
2021/12/26 11:00:15;;;;;;;13.30;9.73;;;4.70;99.90;;;;;;5032569;28;20059;-65
2021/12/26 11:02:44;;;;;;;13.17;10.10;;;4.70;99.90;;;;;;5034621;28;20032;-72
2021/12/26 11:05:12;;;;;;;17.30;13.43;;;4.80;99.90;;;;;;5033331;28;20124;-72
2021/12/26 11:07:40;;;;;;;15.50;11.47;;;4.80;99.90;;;;;;5033131;28;20041;-73
2021/12/26 11:10:33;;;;;;;14.00;9.33;;;4.80;99.90;;;;;;5033663;28;20033;-73
2021/12/26 11:13:02;;;;;;;13.13;8.67;;;4.80;99.90;;;;;;5031568;28;20042;-73
2021/12/26 11:15:34;;;;;;;11.37;9.00;;;4.90;99.90;;;;;;5032899;28;20041;-73
2021/12/26 11:18:03;;;;;;;12.47;9.37;;;5.00;99.90;;;;;;5034269;28;20644;-73
2021/12/26 11:20:36;;;;;;;11.40;9.07;;;4.90;99.90;;;;;;5031352;28;20482;-74
2021/12/26 11:23:09;;;;;;;11.57;9.27;;;4.90;99.90;;;;;;5029767;28;20068;-72
2021/12/26 11:26:00;;;;;;;11.00;8.57;;;4.80;99.90;;;;;;5031887;28;20725;-75
2021/12/26 11:28:29;;;;;;;12.50;9.53;;;4.80;99.90;;;;;;5020279;28;20033;-76
2021/12/26 11:31:01;;;;;;;16.90;12.83;;;4.90;99.90;;;;;;5029734;28;20037;-74
2021/12/26 11:33:27;;;;;;;11.43;9.17;;;4.90;99.90;;;;;;5046945;28;20378;-74
2021/12/26 11:35:55;;;;;;;12.43;8.87;;;4.90;99.90;;;;;;5037359;28;20095;-71
2021/12/26 11:38:23;;;;;;;12.80;9.30;;;5.10;99.90;;;;;;5032004;28;20029;-71
2021/12/26 11:40:51;;;;;;;13.93;9.90;;;5.10;99.90;;;;;;5032433;28;20029;-72
2021/12/26 11:43:54;;;;;;;11.13;8.07;;;5.10;99.90;;;;;;5032216;28;20390;-71
2021/12/26 11:46:48;;;;;;;9.63;7.80;;;5.30;99.90;;;;;;5048769;28;20055;-71
2021/12/26 11:49:43;;;;;;;10.53;8.20;;;5.50;99.90;;;;;;5031975;28;20037;-72
2021/12/26 11:52:11;;;;;;;11.90;8.73;;;5.30;99.90;;;;;;5026869;28;20041;-72
2021/12/26 11:54:42;;;;;;;11.67;8.90;;;5.20;99.90;;;;;;5021096;28;20105;-72
2021/12/26 11:57:49;;;;;;;10.80;8.30;;;5.20;99.90;;;;;;5030855;28;20061;-72
2021/12/26 12:00:25;;;;;;;11.83;9.03;;;5.30;99.90;;;;;;5025146;28;20030;-72
2021/12/26 12:02:57;;;;;;;12.67;9.43;;;5.40;99.90;;;;;;5020146;28;20109;-72
2021/12/26 12:05:36;;;;;;;14.50;9.93;;;5.30;99.90;;;;;;5022421;28;20466;-72
2021/12/26 12:08:05;;;;;;;12.60;9.20;;;5.30;99.90;;;;;;5029304;28;20547;-73
2021/12/26 12:10:51;;;;;;;70.77;38.93;;;5.20;99.90;;;;;;5024428;28;20014;-73
2021/12/26 12:13:22;;;;;;;;;;;5.20;99.90;;;;;;5029978;28;20049;-72
2021/12/26 12:15:52;;;;;;;98.63;42.37;;;5.20;99.90;;;;;;5025176;28;19974;-72
2021/12/26 12:18:18;;;;;;;43.23;23.83;;;5.20;99.90;;;;;;5026165;28;20117;-72
2021/12/26 12:20:44;;;;;;;28.37;19.63;;;5.20;99.90;;;;;;5031482;28;20101;-72
2021/12/26 12:23:13;;;;;;;106.63;48.23;;;5.10;99.90;;;;;;5023489;28;20017;-72
2021/12/26 12:25:52;;;;;;;24.97;15.50;;;5.10;99.90;;;;;;5031562;28;20026;-72
2021/12/26 12:28:23;;;;;;;21.00;15.30;;;5.30;99.90;;;;;;5017554;28;20178;-72
2021/12/26 12:30:50;;;;;;;13.43;9.07;;;5.30;99.90;;;;;;5019233;28;20129;-71
2021/12/26 12:33:33;;;;;;;13.37;10.23;;;5.40;99.90;;;;;;5033446;28;20367;-72
2021/12/26 12:36:09;;;;;;;14.93;10.90;;;5.40;99.90;;;;;;5020389;28;20053;-73
2021/12/26 12:38:41;;;;;;;17.10;14.83;;;5.50;99.90;;;;;;5019763;28;20129;-74
2021/12/26 12:41:28;;;;;;;18.50;13.73;;;5.50;99.90;;;;;;5016533;28;20110;-73
2021/12/26 12:43:58;;;;;;;16.20;12.57;;;5.70;99.90;;;;;;5015251;28;20048;-71
2021/12/26 12:46:25;;;;;;;20.43;14.00;;;5.70;99.90;;;;;;5018383;28;20037;-71